KTUP

Tupelo Regional Airport

Tupelo, Mississippi, USA
KTUP 230709Z 2307/2406 17006KT 6SM BR VCSH OVC004 FM230900 23006KT 5SM BR VCSH OVC008 FM231600 22009KT 5SM BR VCSH SCT008 BKN015 FM231900 21010KT P6SM -SHRA VCTS BKN025CB BKN080 FM240100 VRB02KT 5SM BR VCSH BKN008 OVC012
Issued Valid From Valid To
Apr-23 @ 07:09 UTC
(2 hours ago)
Apr-23 @ 07:00 UTC
(3 hours ago)
Apr-24 @ 06:00 UTC
(in 20 hours)
Expired Click to View Apr-23 @ 07:00 to Apr-23 @ 09:00
KTUP 230709Z 2307/2406 17006KT 6SM BR VCSH OVC004
Wind Visibility Clouds Conditions
170° at 6 knots 6 miles
  • Overcast at 400' AGL
  • Mist
From Apr-23 @ 09:00 to Apr-23 @ 16:00
FM230900 23006KT 5SM BR VCSH OVC008
Wind Visibility Clouds Conditions
230° at 6 knots 5 miles
  • Overcast at 800' AGL
  • Mist
From Apr-23 @ 16:00 to Apr-23 @ 19:00
FM231600 22009KT 5SM BR VCSH SCT008 BKN015
Wind Visibility Clouds Conditions
220° at 9 knots 5 miles
  • Scattered at 800' AGL
  • Broken at 1,500' AGL
  • Mist
From Apr-23 @ 19:00 to Apr-24 @ 01:00
FM231900 21010KT P6SM -SHRA VCTS BKN025CB BKN080
Wind Visibility Clouds Conditions
210° at 10 knots Greater than 6 miles
  • Broken at 2,500' AGL
  • Broken at 8,000' AGL
  • Light Rain
  • Area Thunderstorm
From Apr-24 @ 01:00 to Apr-24 @ 06:00
FM240100 VRB02KT 5SM BR VCSH BKN008 OVC012
Wind Visibility Clouds Conditions
Variable at 2 knots 5 miles
  • Broken at 800' AGL
  • Overcast at 1,200' AGL
  • Mist
KTUP 230709Z 2307/2406 17006KT 6SM BR VCSH OVC004 FM230900 23006KT 5SM BR VCSH OVC008 FM231600 22009KT 5SM BR VCSH SCT008 BKN015 FM231900 21010KT P6SM -SHRA VCTS BKN025CB BKN080 FM240100 VRB02KT 5SM BR VCSH BKN008 OVC012
Issued Apr-23 @ 07:09 UTC
(2 hours ago)
Valid From Apr-23 @ 07:00 UTC
(3 hours ago)
Valid To Apr-24 @ 06:00 UTC
(in 20 hours)
Apr-23 @ 07:00 - Apr-23 @ 09:00
Wind Visibility
170° at 6 knots 6 miles
Clouds
  • Overcast at 400' AGL
Conditions
  • Mist
From Apr-23 @ 09:00 - Apr-23 @ 16:00
Wind Visibility
230° at 6 knots 5 miles
Clouds
  • Overcast at 800' AGL
Conditions
  • Mist
From Apr-23 @ 16:00 - Apr-23 @ 19:00
Wind Visibility
220° at 9 knots 5 miles
Clouds
  • Scattered at 800' AGL
  • Broken at 1,500' AGL
Conditions
  • Mist
From Apr-23 @ 19:00 - Apr-24 @ 01:00
Wind Visibility
210° at 10 knots Greater than 6 miles
Clouds
  • Broken at 2,500' AGL
  • Broken at 8,000' AGL
Conditions
  • Light Rain
  • Area Thunderstorm
From Apr-24 @ 01:00 - Apr-24 @ 06:00
Wind Visibility
Variable at 2 knots 5 miles
Clouds
  • Broken at 800' AGL
  • Overcast at 1,200' AGL
Conditions
  • Mist